sensor_id;sensor_type;location;lat;lon;timestamp;temperature;humidity
1702;DHT22;848;48.354;10.064;2022-12-11T00:02:11;0.10;99.90
1702;DHT22;848;48.354;10.064;2022-12-11T00:04:38;0.10;99.90
1702;DHT22;848;48.354;10.064;2022-12-11T00:07:04;0.20;99.90
1702;DHT22;848;48.354;10.064;2022-12-11T00:09:31;0.30;99.90
1702;DHT22;848;48.354;10.064;2022-12-11T00:11:58;0.40;99.90
1702;DHT22;848;48.354;10.064;2022-12-11T00:14:27;0.40;99.90
1702;DHT22;848;48.354;10.064;2022-12-11T00:16:54;0.40;99.90
1702;DHT22;848;48.354;10.064;2022-12-11T00:19:23;0.40;99.90
1702;DHT22;848;48.354;10.064;2022-12-11T00:21:49;0.40;99.90
1702;DHT22;848;48.354;10.064;2022-12-11T00:24:17;0.40;99.90
1702;DHT22;848;48.354;10.064;2022-12-11T00:26:44;0.50;99.90
1702;DHT22;848;48.354;10.064;2022-12-11T00:29:10;0.50;99.90
1702;DHT22;848;48.354;10.064;2022-12-11T00:31:39;0.50;99.90
1702;DHT22;848;48.354;10.064;2022-12-11T00:34:14;0.60;99.90
1702;DHT22;848;48.354;10.064;2022-12-11T00:36:43;0.70;99.90
1702;DHT22;848;48.354;10.064;2022-12-11T00:39:10;0.60;99.90
1702;DHT22;848;48.354;10.064;2022-12-11T00:41:37;0.60;99.90
1702;DHT22;848;48.354;10.064;2022-12-11T00:44:04;0.60;99.90
1702;DHT22;848;48.354;10.064;2022-12-11T00:46:31;0.60;99.90
1702;DHT22;848;48.354;10.064;2022-12-11T00:48:58;0.60;99.90
1702;DHT22;848;48.354;10.064;2022-12-11T00:51:25;0.60;99.90
1702;DHT22;848;48.354;10.064;2022-12-11T00:53:53;0.70;99.90
1702;DHT22;848;48.354;10.064;2022-12-11T00:56:21;0.70;99.90
1702;DHT22;848;48.354;10.064;2022-12-11T00:58:49;0.60;99.90
1702;DHT22;848;48.354;10.064;2022-12-11T01:01:19;0.60;99.90
1702;DHT22;848;48.354;10.064;2022-12-11T01:03:47;0.60;99.90
1702;DHT22;848;48.354;10.064;2022-12-11T01:06:15;0.70;99.90
1702;DHT22;848;48.354;10.064;2022-12-11T01:08:43;0.70;99.90
1702;DHT22;848;48.354;10.064;2022-12-11T01:11:13;0.80;99.90
1702;DHT22;848;48.354;10.064;2022-12-11T01:13:40;0.90;99.90
1702;DHT22;848;48.354;10.064;2022-12-11T01:16:09;0.80;99.90
1702;DHT22;848;48.354;10.064;2022-12-11T01:18:37;0.80;99.90
1702;DHT22;848;48.354;10.064;2022-12-11T01:21:08;0.80;99.90
1702;DHT22;848;48.354;10.064;2022-12-11T01:23:37;0.90;99.90
1702;DHT22;848;48.354;10.064;2022-12-11T01:26:06;0.90;99.90
1702;DHT22;848;48.354;10.064;2022-12-11T01:28:38;0.90;99.90
1702;DHT22;848;48.354;10.064;2022-12-11T01:31:07;0.90;99.90
1702;DHT22;848;48.354;10.064;2022-12-11T01:33:34;0.90;99.90
1702;DHT22;848;48.354;10.064;2022-12-11T01:36:06;0.90;99.90
1702;DHT22;848;48.354;10.064;2022-12-11T01:38:36;1.00;99.90
1702;DHT22;848;48.354;10.064;2022-12-11T01:41:04;0.90;99.90
1702;DHT22;848;48.354;10.064;2022-12-11T01:43:31;0.90;99.90
1702;DHT22;848;48.354;10.064;2022-12-11T01:45:59;0.90;99.90
1702;DHT22;848;48.354;10.064;2022-12-11T01:48:28;0.80;99.90
1702;DHT22;848;48.354;10.064;2022-12-11T01:50:57;0.80;99.90
1702;DHT22;848;48.354;10.064;2022-12-11T01:53:27;0.90;99.90
1702;DHT22;848;48.354;10.064;2022-12-11T01:55:56;0.90;99.90
1702;DHT22;848;48.354;10.064;2022-12-11T01:58:28;0.80;99.90
1702;DHT22;848;48.354;10.064;2022-12-11T02:00:56;0.80;99.90
1702;DHT22;848;48.354;10.064;2022-12-11T02:03:25;0.90;99.90
1702;DHT22;848;48.354;10.064;2022-12-11T02:05:57;0.90;99.90
1702;DHT22;848;48.354;10.064;2022-12-11T02:08:24;1.00;99.90
1702;DHT22;848;48.354;10.064;2022-12-11T02:11:04;0.90;99.90
1702;DHT22;848;48.354;10.064;2022-12-11T02:13:38;0.90;99.90
1702;DHT22;848;48.354;10.064;2022-12-11T02:16:15;0.90;99.90
1702;DHT22;848;48.354;10.064;2022-12-11T02:18:50;0.90;99.90
1702;DHT22;848;48.354;10.064;2022-12-11T02:21:25;0.90;99.90
1702;DHT22;848;48.354;10.064;2022-12-11T02:24:06;0.60;99.90
1702;DHT22;848;48.354;10.064;2022-12-11T02:27:14;0.80;99.90
1702;DHT22;848;48.354;10.064;2022-12-11T02:29:50;0.70;99.90
1702;DHT22;848;48.354;10.064;2022-12-11T02:32:21;0.70;99.90
1702;DHT22;848;48.354;10.064;2022-12-11T02:34:55;0.60;99.90
1702;DHT22;848;48.354;10.064;2022-12-11T02:37:25;0.50;99.90
1702;DHT22;848;48.354;10.064;2022-12-11T02:39:54;0.50;99.90
1702;DHT22;848;48.354;10.064;2022-12-11T02:42:23;0.50;99.90
1702;DHT22;848;48.354;10.064;2022-12-11T02:44:55;0.50;99.90
1702;DHT22;848;48.354;10.064;2022-12-11T02:47:24;0.50;99.90
1702;DHT22;848;48.354;10.064;2022-12-11T02:49:53;0.50;99.90
1702;DHT22;848;48.354;10.064;2022-12-11T02:52:22;0.50;99.90
1702;DHT22;848;48.354;10.064;2022-12-11T02:54:53;0.50;99.90
1702;DHT22;848;48.354;10.064;2022-12-11T02:57:26;0.50;99.90
1702;DHT22;848;48.354;10.064;2022-12-11T02:59:56;0.60;99.90
1702;DHT22;848;48.354;10.064;2022-12-11T03:02:23;0.70;99.90
1702;DHT22;848;48.354;10.064;2022-12-11T03:04:50;0.70;99.90
1702;DHT22;848;48.354;10.064;2022-12-11T03:07:19;0.80;99.90
1702;DHT22;848;48.354;10.064;2022-12-11T03:09:49;0.90;99.90
1702;DHT22;848;48.354;10.064;2022-12-11T03:12:18;0.90;99.90
1702;DHT22;848;48.354;10.064;2022-12-11T03:14:46;0.90;99.90
1702;DHT22;848;48.354;10.064;2022-12-11T03:17:18;0.90;99.90
1702;DHT22;848;48.354;10.064;2022-12-11T03:19:49;0.90;99.90
1702;DHT22;848;48.354;10.064;2022-12-11T03:22:21;0.90;99.90
1702;DHT22;848;48.354;10.064;2022-12-11T03:24:56;0.90;99.90
1702;DHT22;848;48.354;10.064;2022-12-11T03:27:29;0.90;99.90
1702;DHT22;848;48.354;10.064;2022-12-11T03:30:01;0.80;99.90
1702;DHT22;848;48.354;10.064;2022-12-11T03:32:35;1.00;99.90
1702;DHT22;848;48.354;10.064;2022-12-11T03:35:06;0.90;99.90
1702;DHT22;848;48.354;10.064;2022-12-11T03:37:36;0.90;99.90
1702;DHT22;848;48.354;10.064;2022-12-11T03:40:08;0.90;99.90
1702;DHT22;848;48.354;10.064;2022-12-11T03:42:37;0.80;99.90
1702;DHT22;848;48.354;10.064;2022-12-11T03:45:06;0.80;99.90
1702;DHT22;848;48.354;10.064;2022-12-11T03:47:36;0.70;99.90
1702;DHT22;848;48.354;10.064;2022-12-11T03:50:05;0.70;99.90
1702;DHT22;848;48.354;10.064;2022-12-11T03:52:33;0.60;99.90
1702;DHT22;848;48.354;10.064;2022-12-11T03:55:04;0.50;99.90
1702;DHT22;848;48.354;10.064;2022-12-11T03:57:35;0.40;99.90
1702;DHT22;848;48.354;10.064;2022-12-11T04:00:03;0.40;99.90
1702;DHT22;848;48.354;10.064;2022-12-11T04:02:30;0.40;99.90
1702;DHT22;848;48.354;10.064;2022-12-11T04:04:59;0.40;99.90
1702;DHT22;848;48.354;10.064;2022-12-11T04:07:25;0.20;99.90
1702;DHT22;848;48.354;10.064;2022-12-11T04:09:53;0.30;99.90
1702;DHT22;848;48.354;10.064;2022-12-11T04:12:20;0.40;99.90
1702;DHT22;848;48.354;10.064;2022-12-11T04:14:46;0.50;99.90
1702;DHT22;848;48.354;10.064;2022-12-11T04:17:28;0.40;99.90
1702;DHT22;848;48.354;10.064;2022-12-11T04:20:14;0.40;99.90
1702;DHT22;848;48.354;10.064;2022-12-11T04:22:58;0.40;99.90
1702;DHT22;848;48.354;10.064;2022-12-11T04:25:45;0.50;99.90
1702;DHT22;848;48.354;10.064;2022-12-11T04:28:12;0.50;99.90
1702;DHT22;848;48.354;10.064;2022-12-11T04:30:38;0.50;99.90
1702;DHT22;848;48.354;10.064;2022-12-11T04:33:05;0.50;99.90
1702;DHT22;848;48.354;10.064;2022-12-11T04:35:35;0.50;99.90
1702;DHT22;848;48.354;10.064;2022-12-11T04:38:02;0.60;99.90
1702;DHT22;848;48.354;10.064;2022-12-11T04:40:28;0.70;99.90
1702;DHT22;848;48.354;10.064;2022-12-11T04:42:57;0.70;99.90
1702;DHT22;848;48.354;10.064;2022-12-11T04:45:24;0.70;99.90
1702;DHT22;848;48.354;10.064;2022-12-11T04:47:51;0.70;99.90
1702;DHT22;848;48.354;10.064;2022-12-11T04:50:18;0.70;99.90
1702;DHT22;848;48.354;10.064;2022-12-11T04:52:46;0.60;99.90
1702;DHT22;848;48.354;10.064;2022-12-11T04:55:13;0.50;99.90
1702;DHT22;848;48.354;10.064;2022-12-11T04:57:40;0.50;99.90
1702;DHT22;848;48.354;10.064;2022-12-11T05:00:10;0.40;99.90
1702;DHT22;848;48.354;10.064;2022-12-11T05:02:38;0.30;99.90
1702;DHT22;848;48.354;10.064;2022-12-11T05:05:08;0.40;99.90
1702;DHT22;848;48.354;10.064;2022-12-11T05:07:36;0.20;99.90
1702;DHT22;848;48.354;10.064;2022-12-11T05:10:08;0.10;99.90
1702;DHT22;848;48.354;10.064;2022-12-11T05:12:35;0.00;99.90
1702;DHT22;848;48.354;10.064;2022-12-11T05:15:02;-0.20;99.90
1702;DHT22;848;48.354;10.064;2022-12-11T05:17:29;-0.40;99.90
1702;DHT22;848;48.354;10.064;2022-12-11T05:19:56;-0.50;99.90
1702;DHT22;848;48.354;10.064;2022-12-11T05:22:23;-0.60;99.90
1702;DHT22;848;48.354;10.064;2022-12-11T05:24:50;-0.70;99.90
1702;DHT22;848;48.354;10.064;2022-12-11T05:27:18;-0.80;99.90
1702;DHT22;848;48.354;10.064;2022-12-11T05:29:46;-1.00;99.90
1702;DHT22;848;48.354;10.064;2022-12-11T05:32:16;-1.10;99.90
1702;DHT22;848;48.354;10.064;2022-12-11T05:34:45;-1.20;99.90
1702;DHT22;848;48.354;10.064;2022-12-11T05:37:12;-1.30;99.90
1702;DHT22;848;48.354;10.064;2022-12-11T05:39:39;-1.30;99.90
1702;DHT22;848;48.354;10.064;2022-12-11T05:42:05;-1.40;99.90
1702;DHT22;848;48.354;10.064;2022-12-11T05:44:34;-1.50;99.90
1702;DHT22;848;48.354;10.064;2022-12-11T05:47:01;-1.70;99.90
1702;DHT22;848;48.354;10.064;2022-12-11T05:49:28;-1.80;99.90
1702;DHT22;848;48.354;10.064;2022-12-11T05:51:55;-1.80;99.90
1702;DHT22;848;48.354;10.064;2022-12-11T05:54:22;-1.90;99.90
1702;DHT22;848;48.354;10.064;2022-12-11T05:56:49;-1.90;99.90
1702;DHT22;848;48.354;10.064;2022-12-11T05:59:16;-2.00;99.90
1702;DHT22;848;48.354;10.064;2022-12-11T06:01:45;-2.00;99.90
1702;DHT22;848;48.354;10.064;2022-12-11T06:04:12;-2.00;99.90
1702;DHT22;848;48.354;10.064;2022-12-11T06:06:39;-2.10;99.90
1702;DHT22;848;48.354;10.064;2022-12-11T06:09:12;-2.10;99.90
1702;DHT22;848;48.354;10.064;2022-12-11T06:11:40;-2.30;99.90
1702;DHT22;848;48.354;10.064;2022-12-11T06:14:08;-2.40;99.90
1702;DHT22;848;48.354;10.064;2022-12-11T06:16:38;-2.40;99.90
1702;DHT22;848;48.354;10.064;2022-12-11T06:19:12;-2.50;99.90
1702;DHT22;848;48.354;10.064;2022-12-11T06:21:39;-2.60;99.90
1702;DHT22;848;48.354;10.064;2022-12-11T06:24:09;-2.60;99.90
1702;DHT22;848;48.354;10.064;2022-12-11T06:26:36;-2.60;99.90
1702;DHT22;848;48.354;10.064;2022-12-11T06:29:03;-2.60;99.90
1702;DHT22;848;48.354;10.064;2022-12-11T06:31:30;-2.60;99.90
1702;DHT22;848;48.354;10.064;2022-12-11T06:33:57;-2.60;99.90
1702;DHT22;848;48.354;10.064;2022-12-11T06:36:25;-2.70;99.90
1702;DHT22;848;48.354;10.064;2022-12-11T06:38:53;-2.70;99.90
1702;DHT22;848;48.354;10.064;2022-12-11T06:41:21;-2.70;99.90
1702;DHT22;848;48.354;10.064;2022-12-11T06:43:48;-2.70;99.90
1702;DHT22;848;48.354;10.064;2022-12-11T06:46:16;-2.60;99.90
1702;DHT22;848;48.354;10.064;2022-12-11T06:48:44;-2.70;99.90
1702;DHT22;848;48.354;10.064;2022-12-11T06:51:13;-2.70;99.90
1702;DHT22;848;48.354;10.064;2022-12-11T06:53:41;-2.70;99.90
1702;DHT22;848;48.354;10.064;2022-12-11T06:56:11;-2.50;99.90
1702;DHT22;848;48.354;10.064;2022-12-11T06:58:42;-2.60;99.90
1702;DHT22;848;48.354;10.064;2022-12-11T07:01:15;-2.20;99.90
1702;DHT22;848;48.354;10.064;2022-12-11T07:03:45;-2.10;99.90
1702;DHT22;848;48.354;10.064;2022-12-11T07:06:13;-2.00;99.90
1702;DHT22;848;48.354;10.064;2022-12-11T07:08:42;-1.90;99.90
1702;DHT22;848;48.354;10.064;2022-12-11T07:11:10;-1.80;99.90
1702;DHT22;848;48.354;10.064;2022-12-11T07:13:38;-1.80;99.90
1702;DHT22;848;48.354;10.064;2022-12-11T07:16:07;-1.70;99.90
1702;DHT22;848;48.354;10.064;2022-12-11T07:18:35;-1.70;99.90
1702;DHT22;848;48.354;10.064;2022-12-11T07:21:03;-1.70;99.90
1702;DHT22;848;48.354;10.064;2022-12-11T07:23:30;-1.60;99.90
1702;DHT22;848;48.354;10.064;2022-12-11T07:26:03;-1.50;99.90
1702;DHT22;848;48.354;10.064;2022-12-11T07:28:31;-1.50;99.90
1702;DHT22;848;48.354;10.064;2022-12-11T07:30:58;-1.50;99.90
1702;DHT22;848;48.354;10.064;2022-12-11T07:33:24;-1.50;99.90
1702;DHT22;848;48.354;10.064;2022-12-11T07:35:51;-1.40;99.90
1702;DHT22;848;48.354;10.064;2022-12-11T07:38:18;-1.40;99.90
1702;DHT22;848;48.354;10.064;2022-12-11T07:40:45;-1.40;99.90
1702;DHT22;848;48.354;10.064;2022-12-11T07:43:13;-1.40;99.90
1702;DHT22;848;48.354;10.064;2022-12-11T07:45:40;-1.30;99.90
1702;DHT22;848;48.354;10.064;2022-12-11T07:48:07;-1.30;99.90
1702;DHT22;848;48.354;10.064;2022-12-11T07:50:34;-1.20;99.90
1702;DHT22;848;48.354;10.064;2022-12-11T07:53:01;-1.10;99.90
1702;DHT22;848;48.354;10.064;2022-12-11T07:55:28;-1.10;99.90
1702;DHT22;848;48.354;10.064;2022-12-11T07:57:55;-1.10;99.90
1702;DHT22;848;48.354;10.064;2022-12-11T08:00:23;-1.00;99.90
1702;DHT22;848;48.354;10.064;2022-12-11T08:02:50;-1.10;99.90
1702;DHT22;848;48.354;10.064;2022-12-11T08:05:17;-1.10;99.90
1702;DHT22;848;48.354;10.064;2022-12-11T08:07:44;-1.30;99.90
1702;DHT22;848;48.354;10.064;2022-12-11T08:10:11;-1.40;99.90
1702;DHT22;848;48.354;10.064;2022-12-11T08:12:41;-1.70;99.90
1702;DHT22;848;48.354;10.064;2022-12-11T08:15:09;-1.50;99.90
1702;DHT22;848;48.354;10.064;2022-12-11T08:17:37;-1.50;99.90
1702;DHT22;848;48.354;10.064;2022-12-11T08:20:05;-1.50;99.90
1702;DHT22;848;48.354;10.064;2022-12-11T08:22:33;-1.50;99.90
1702;DHT22;848;48.354;10.064;2022-12-11T08:25:00;-1.50;99.90
1702;DHT22;848;48.354;10.064;2022-12-11T08:27:27;-1.50;99.90
1702;DHT22;848;48.354;10.064;2022-12-11T08:29:54;-1.40;99.90
1702;DHT22;848;48.354;10.064;2022-12-11T08:32:21;-1.30;99.90
1702;DHT22;848;48.354;10.064;2022-12-11T08:34:50;-1.40;99.90
1702;DHT22;848;48.354;10.064;2022-12-11T08:37:17;-1.40;99.90
1702;DHT22;848;48.354;10.064;2022-12-11T08:39:44;-1.50;99.90
1702;DHT22;848;48.354;10.064;2022-12-11T08:42:11;-1.60;99.90
1702;DHT22;848;48.354;10.064;2022-12-11T08:44:38;-1.70;99.90
1702;DHT22;848;48.354;10.064;2022-12-11T08:47:05;-1.80;99.90
1702;DHT22;848;48.354;10.064;2022-12-11T08:49:34;-1.80;99.90
1702;DHT22;848;48.354;10.064;2022-12-11T08:52:04;-1.90;99.90
1702;DHT22;848;48.354;10.064;2022-12-11T08:54:31;-1.90;99.90
1702;DHT22;848;48.354;10.064;2022-12-11T08:56:58;-1.90;99.90
1702;DHT22;848;48.354;10.064;2022-12-11T08:59:25;-1.80;99.90
1702;DHT22;848;48.354;10.064;2022-12-11T09:01:53;-1.80;99.90
1702;DHT22;848;48.354;10.064;2022-12-11T09:04:20;-1.80;99.90
1702;DHT22;848;48.354;10.064;2022-12-11T09:06:47;-1.80;99.90
1702;DHT22;848;48.354;10.064;2022-12-11T09:09:15;-1.60;99.90
1702;DHT22;848;48.354;10.064;2022-12-11T09:11:43;-1.70;99.90
1702;DHT22;848;48.354;10.064;2022-12-11T09:14:10;-1.70;99.90
1702;DHT22;848;48.354;10.064;2022-12-11T09:16:38;-1.70;99.90
1702;DHT22;848;48.354;10.064;2022-12-11T09:19:07;-1.70;99.90
1702;DHT22;848;48.354;10.064;2022-12-11T09:21:34;-1.60;99.90
1702;DHT22;848;48.354;10.064;2022-12-11T09:24:01;-1.60;99.90
1702;DHT22;848;48.354;10.064;2022-12-11T09:26:29;-1.40;99.90
1702;DHT22;848;48.354;10.064;2022-12-11T09:28:56;-1.30;99.90
1702;DHT22;848;48.354;10.064;2022-12-11T09:31:25;-1.30;99.90
1702;DHT22;848;48.354;10.064;2022-12-11T09:33:54;-1.20;99.90
1702;DHT22;848;48.354;10.064;2022-12-11T09:36:22;-0.90;99.90
1702;DHT22;848;48.354;10.064;2022-12-11T09:38:49;-0.90;99.90
1702;DHT22;848;48.354;10.064;2022-12-11T09:41:31;-0.80;99.90
1702;DHT22;848;48.354;10.064;2022-12-11T09:44:18;-0.80;99.90
1702;DHT22;848;48.354;10.064;2022-12-11T09:46:47;-0.60;99.90
1702;DHT22;848;48.354;10.064;2022-12-11T09:49:23;-0.50;99.90
1702;DHT22;848;48.354;10.064;2022-12-11T09:51:59;-0.40;99.90
1702;DHT22;848;48.354;10.064;2022-12-11T09:54:27;-0.40;99.90
1702;DHT22;848;48.354;10.064;2022-12-11T09:57:02;-0.30;99.90
1702;DHT22;848;48.354;10.064;2022-12-11T09:59:40;-0.20;99.90
1702;DHT22;848;48.354;10.064;2022-12-11T10:02:21;-0.10;99.90
1702;DHT22;848;48.354;10.064;2022-12-11T10:04:57;0.00;99.90
1702;DHT22;848;48.354;10.064;2022-12-11T10:07:37;0.00;99.90
1702;DHT22;848;48.354;10.064;2022-12-11T10:10:15;0.10;99.90
1702;DHT22;848;48.354;10.064;2022-12-11T10:12:56;0.00;99.90
1702;DHT22;848;48.354;10.064;2022-12-11T10:15:36;0.00;99.90
1702;DHT22;848;48.354;10.064;2022-12-11T10:18:10;-0.10;99.90
1702;DHT22;848;48.354;10.064;2022-12-11T10:20:39;-0.20;99.90
1702;DHT22;848;48.354;10.064;2022-12-11T10:23:08;-0.20;99.90
1702;DHT22;848;48.354;10.064;2022-12-11T10:25:43;-0.20;99.90
1702;DHT22;848;48.354;10.064;2022-12-11T10:28:14;-0.10;99.90
1702;DHT22;848;48.354;10.064;2022-12-11T10:30:52;0.10;99.90
1702;DHT22;848;48.354;10.064;2022-12-11T10:33:25;0.10;99.90
1702;DHT22;848;48.354;10.064;2022-12-11T10:35:54;0.00;99.90
1702;DHT22;848;48.354;10.064;2022-12-11T10:38:25;0.00;99.90
1702;DHT22;848;48.354;10.064;2022-12-11T10:40:55;0.00;99.90
1702;DHT22;848;48.354;10.064;2022-12-11T10:43:34;0.10;99.90
1702;DHT22;848;48.354;10.064;2022-12-11T10:46:03;0.10;99.90
1702;DHT22;848;48.354;10.064;2022-12-11T10:48:30;0.10;99.90
1702;DHT22;848;48.354;10.064;2022-12-11T10:51:00;0.20;99.90
1702;DHT22;848;48.354;10.064;2022-12-11T10:53:27;0.20;99.90
1702;DHT22;848;48.354;10.064;2022-12-11T10:55:55;0.20;99.90
1702;DHT22;848;48.354;10.064;2022-12-11T10:58:25;0.30;99.90
1702;DHT22;848;48.354;10.064;2022-12-11T11:01:06;0.30;99.90
1702;DHT22;848;48.354;10.064;2022-12-11T11:03:41;0.20;99.90
1702;DHT22;848;48.354;10.064;2022-12-11T11:06:15;0.20;99.90
1702;DHT22;848;48.354;10.064;2022-12-11T11:08:45;0.10;99.90
1702;DHT22;848;48.354;10.064;2022-12-11T11:11:21;0.20;99.90
1702;DHT22;848;48.354;10.064;2022-12-11T11:13:48;0.20;99.90
1702;DHT22;848;48.354;10.064;2022-12-11T11:16:18;0.50;99.90
1702;DHT22;848;48.354;10.064;2022-12-11T11:18:52;0.50;99.90
1702;DHT22;848;48.354;10.064;2022-12-11T11:21:21;0.40;99.90
1702;DHT22;848;48.354;10.064;2022-12-11T11:23:50;0.50;99.90
1702;DHT22;848;48.354;10.064;2022-12-11T11:26:18;0.60;99.90
1702;DHT22;848;48.354;10.064;2022-12-11T11:28:49;0.50;99.90
1702;DHT22;848;48.354;10.064;2022-12-11T11:31:21;0.60;99.90
1702;DHT22;848;48.354;10.064;2022-12-11T11:33:57;0.60;99.90
1702;DHT22;848;48.354;10.064;2022-12-11T11:36:26;0.80;99.90
1702;DHT22;848;48.354;10.064;2022-12-11T11:39:03;0.90;99.90
1702;DHT22;848;48.354;10.064;2022-12-11T11:41:39;1.10;99.90
1702;DHT22;848;48.354;10.064;2022-12-11T11:44:11;1.20;99.90
1702;DHT22;848;48.354;10.064;2022-12-11T11:46:45;1.10;99.90
1702;DHT22;848;48.354;10.064;2022-12-11T11:49:20;1.10;99.90
1702;DHT22;848;48.354;10.064;2022-12-11T11:51:54;1.20;99.90
1702;DHT22;848;48.354;10.064;2022-12-11T11:54:29;1.20;99.90
1702;DHT22;848;48.354;10.064;2022-12-11T11:56:58;1.10;99.90
1702;DHT22;848;48.354;10.064;2022-12-11T11:59:30;1.20;99.90
1702;DHT22;848;48.354;10.064;2022-12-11T12:02:00;1.00;99.90
1702;DHT22;848;48.354;10.064;2022-12-11T12:04:31;0.70;99.90
1702;DHT22;848;48.354;10.064;2022-12-11T12:07:08;0.60;99.90
1702;DHT22;848;48.354;10.064;2022-12-11T12:09:46;0.60;99.90
1702;DHT22;848;48.354;10.064;2022-12-11T12:12:23;0.70;99.90
1702;DHT22;848;48.354;10.064;2022-12-11T12:15:08;0.60;99.90
1702;DHT22;848;48.354;10.064;2022-12-11T12:17:47;0.40;99.90
1702;DHT22;848;48.354;10.064;2022-12-11T12:20:19;0.50;99.90
1702;DHT22;848;48.354;10.064;2022-12-11T12:22:56;0.70;99.90
1702;DHT22;848;48.354;10.064;2022-12-11T12:25:28;0.90;99.90
1702;DHT22;848;48.354;10.064;2022-12-11T12:28:04;0.70;99.90
1702;DHT22;848;48.354;10.064;2022-12-11T12:30:43;0.60;99.90
1702;DHT22;848;48.354;10.064;2022-12-11T12:33:21;0.60;99.90
1702;DHT22;848;48.354;10.064;2022-12-11T12:35:59;0.60;99.90
1702;DHT22;848;48.354;10.064;2022-12-11T12:38:34;0.60;99.90
1702;DHT22;848;48.354;10.064;2022-12-11T12:41:11;0.50;99.90
1702;DHT22;848;48.354;10.064;2022-12-11T12:43:51;0.50;99.90
1702;DHT22;848;48.354;10.064;2022-12-11T12:46:32;0.60;99.90
1702;DHT22;848;48.354;10.064;2022-12-11T12:49:07;0.70;99.90
1702;DHT22;848;48.354;10.064;2022-12-11T12:51:37;0.60;99.90
1702;DHT22;848;48.354;10.064;2022-12-11T12:54:06;0.60;99.90
1702;DHT22;848;48.354;10.064;2022-12-11T12:56:35;1.10;99.90
1702;DHT22;848;48.354;10.064;2022-12-11T12:59:08;1.10;99.90
1702;DHT22;848;48.354;10.064;2022-12-11T13:01:53;1.20;99.90
1702;DHT22;848;48.354;10.064;2022-12-11T13:04:35;1.30;99.90
1702;DHT22;848;48.354;10.064;2022-12-11T13:07:15;1.20;99.90
1702;DHT22;848;48.354;10.064;2022-12-11T13:09:55;0.90;99.90
1702;DHT22;848;48.354;10.064;2022-12-11T13:12:31;1.10;99.90
1702;DHT22;848;48.354;10.064;2022-12-11T13:14:58;0.90;99.90
1702;DHT22;848;48.354;10.064;2022-12-11T13:17:35;1.00;99.90
1702;DHT22;848;48.354;10.064;2022-12-11T13:20:11;1.00;99.90
1702;DHT22;848;48.354;10.064;2022-12-11T13:22:47;1.00;99.90
1702;DHT22;848;48.354;10.064;2022-12-11T13:25:22;1.00;99.90
1702;DHT22;848;48.354;10.064;2022-12-11T13:27:49;1.10;99.90
1702;DHT22;848;48.354;10.064;2022-12-11T13:30:22;1.20;99.90
1702;DHT22;848;48.354;10.064;2022-12-11T13:32:58;1.20;99.90
1702;DHT22;848;48.354;10.064;2022-12-11T13:35:28;1.20;99.90
1702;DHT22;848;48.354;10.064;2022-12-11T13:37:58;1.20;99.90
1702;DHT22;848;48.354;10.064;2022-12-11T13:40:35;1.20;99.90
1702;DHT22;848;48.354;10.064;2022-12-11T13:43:04;1.10;99.90
1702;DHT22;848;48.354;10.064;2022-12-11T13:45:38;1.10;99.90
1702;DHT22;848;48.354;10.064;2022-12-11T13:48:15;1.40;99.90
1702;DHT22;848;48.354;10.064;2022-12-11T13:50:45;1.20;99.90
1702;DHT22;848;48.354;10.064;2022-12-11T13:53:14;1.10;99.90
1702;DHT22;848;48.354;10.064;2022-12-11T13:55:41;1.00;99.90
1702;DHT22;848;48.354;10.064;2022-12-11T13:58:15;1.00;99.90
1702;DHT22;848;48.354;10.064;2022-12-11T14:00:53;1.00;99.90
1702;DHT22;848;48.354;10.064;2022-12-11T14:03:23;0.90;99.90
1702;DHT22;848;48.354;10.064;2022-12-11T14:05:51;0.80;99.90
1702;DHT22;848;48.354;10.064;2022-12-11T14:08:21;0.90;99.90
1702;DHT22;848;48.354;10.064;2022-12-11T14:10:51;0.90;99.90
1702;DHT22;848;48.354;10.064;2022-12-11T14:13:24;0.90;99.90
1702;DHT22;848;48.354;10.064;2022-12-11T14:15:52;0.90;99.90
1702;DHT22;848;48.354;10.064;2022-12-11T14:18:21;0.80;99.90
1702;DHT22;848;48.354;10.064;2022-12-11T14:20:55;0.70;99.90
1702;DHT22;848;48.354;10.064;2022-12-11T14:23:23;0.70;99.90
1702;DHT22;848;48.354;10.064;2022-12-11T14:25:52;0.70;99.90
1702;DHT22;848;48.354;10.064;2022-12-11T14:28:21;0.60;99.90
1702;DHT22;848;48.354;10.064;2022-12-11T14:30:53;0.50;99.90
1702;DHT22;848;48.354;10.064;2022-12-11T14:33:23;0.60;99.90
1702;DHT22;848;48.354;10.064;2022-12-11T14:35:54;0.60;99.90
1702;DHT22;848;48.354;10.064;2022-12-11T14:38:24;0.70;99.90
1702;DHT22;848;48.354;10.064;2022-12-11T14:40:56;0.80;99.90
1702;DHT22;848;48.354;10.064;2022-12-11T14:43:28;0.80;99.90
1702;DHT22;848;48.354;10.064;2022-12-11T14:45:58;0.80;99.90
1702;DHT22;848;48.354;10.064;2022-12-11T14:48:28;0.90;99.90
1702;DHT22;848;48.354;10.064;2022-12-11T14:50:59;0.90;99.90
1702;DHT22;848;48.354;10.064;2022-12-11T14:53:31;0.90;99.90
1702;DHT22;848;48.354;10.064;2022-12-11T14:56:02;0.90;99.90
1702;DHT22;848;48.354;10.064;2022-12-11T14:58:32;0.90;99.90
1702;DHT22;848;48.354;10.064;2022-12-11T15:01:06;0.80;99.90
1702;DHT22;848;48.354;10.064;2022-12-11T15:03:35;0.80;99.90
1702;DHT22;848;48.354;10.064;2022-12-11T15:06:22;0.60;99.90
1702;DHT22;848;48.354;10.064;2022-12-11T15:08:50;0.50;99.90
1702;DHT22;848;48.354;10.064;2022-12-11T15:11:17;0.50;99.90
1702;DHT22;848;48.354;10.064;2022-12-11T15:13:51;0.50;99.90
1702;DHT22;848;48.354;10.064;2022-12-11T15:16:20;0.50;99.90
1702;DHT22;848;48.354;10.064;2022-12-11T15:18:49;0.60;99.90
1702;DHT22;848;48.354;10.064;2022-12-11T15:21:19;0.70;99.90
1702;DHT22;848;48.354;10.064;2022-12-11T15:23:55;0.70;99.90
1702;DHT22;848;48.354;10.064;2022-12-11T15:26:32;0.60;99.90
1702;DHT22;848;48.354;10.064;2022-12-11T15:29:00;0.50;99.90
1702;DHT22;848;48.354;10.064;2022-12-11T15:31:29;0.50;99.90
1702;DHT22;848;48.354;10.064;2022-12-11T15:33:56;0.60;99.90
1702;DHT22;848;48.354;10.064;2022-12-11T15:36:30;0.60;99.90
1702;DHT22;848;48.354;10.064;2022-12-11T15:38:57;0.50;99.90
1702;DHT22;848;48.354;10.064;2022-12-11T15:41:25;0.50;99.90
1702;DHT22;848;48.354;10.064;2022-12-11T15:43:54;0.50;99.90
1702;DHT22;848;48.354;10.064;2022-12-11T15:46:22;0.70;99.90
1702;DHT22;848;48.354;10.064;2022-12-11T15:48:49;0.60;99.90
1702;DHT22;848;48.354;10.064;2022-12-11T15:51:16;0.60;99.90
1702;DHT22;848;48.354;10.064;2022-12-11T15:53:44;0.50;99.90
1702;DHT22;848;48.354;10.064;2022-12-11T15:56:12;0.50;99.90
1702;DHT22;848;48.354;10.064;2022-12-11T15:58:40;0.40;99.90
1702;DHT22;848;48.354;10.064;2022-12-11T16:01:08;0.40;99.90
1702;DHT22;848;48.354;10.064;2022-12-11T16:03:35;0.30;99.90
1702;DHT22;848;48.354;10.064;2022-12-11T16:06:02;0.40;99.90
1702;DHT22;848;48.354;10.064;2022-12-11T16:08:29;0.40;99.90
1702;DHT22;848;48.354;10.064;2022-12-11T16:10:57;0.30;99.90
1702;DHT22;848;48.354;10.064;2022-12-11T16:13:24;0.30;99.90
1702;DHT22;848;48.354;10.064;2022-12-11T16:15:51;0.30;99.90
1702;DHT22;848;48.354;10.064;2022-12-11T16:18:20;0.40;99.90
1702;DHT22;848;48.354;10.064;2022-12-11T16:20:48;0.40;99.90
1702;DHT22;848;48.354;10.064;2022-12-11T16:23:15;0.50;99.90
1702;DHT22;848;48.354;10.064;2022-12-11T16:25:45;0.50;99.90
1702;DHT22;848;48.354;10.064;2022-12-11T16:28:16;0.40;99.90
1702;DHT22;848;48.354;10.064;2022-12-11T16:30:45;0.40;99.90
1702;DHT22;848;48.354;10.064;2022-12-11T16:33:12;0.30;99.90